Time;durP1;ratioP1;P1;durP2;ratioP2;P2;SDS_P1;SDS_P2;PMS_P1;PMS_P2;Temp;Humidity;BMP_temperature;BMP_pressure;BME280_temperature;BME280_humidity;BME280_pressure;Samples;Min_cycle;Max_cycle;Signal;HPM_P1;HPM_P2
2021/06/24 00:01:57;;;;;;;6.93;4.95;;;18.50;99.90;;;;;;3570310;39;20236;-81
2021/06/24 00:04:24;;;;;;;9.60;5.10;;;18.40;99.90;;;;;;3561866;39;20276;-81
2021/06/24 00:06:51;;;;;;;7.30;4.30;;;18.50;99.90;;;;;;3561944;39;20240;-81
2021/06/24 00:09:20;;;;;;;7.32;5.13;;;18.40;99.90;;;;;;3570137;39;20233;-82
2021/06/24 00:11:47;;;;;;;6.50;4.55;;;18.30;99.90;;;;;;3570227;39;20236;-81
2021/06/24 00:14:14;;;;;;;6.97;5.30;;;18.50;99.90;;;;;;3569527;39;20244;-79
2021/06/24 00:16:41;;;;;;;8.00;4.30;;;18.60;99.90;;;;;;3570188;39;20244;-84
2021/06/24 00:19:08;;;;;;;8.40;5.22;;;18.40;99.90;;;;;;3570113;39;20235;-80
2021/06/24 00:21:35;;;;;;;9.20;5.25;;;18.50;99.90;;;;;;3553330;39;20300;-79
2021/06/24 00:24:03;;;;;;;8.55;4.65;;;18.50;99.90;;;;;;3570093;39;20248;-80
2021/06/24 00:26:31;;;;;;;9.80;5.13;;;18.40;99.90;;;;;;3570089;39;20293;-87
2021/06/24 00:29:01;;;;;;;11.73;5.40;;;18.40;99.90;;;;;;3573869;39;20246;-79
2021/06/24 00:31:28;;;;;;;8.10;5.18;;;18.50;99.90;;;;;;3579945;39;20247;-79
2021/06/24 00:33:55;;;;;;;9.90;5.95;;;18.40;99.90;;;;;;3580584;39;20320;-78
2021/06/24 00:36:22;;;;;;;8.00;5.32;;;18.30;99.90;;;;;;3572775;39;20260;-80
2021/06/24 00:38:49;;;;;;;6.38;4.40;;;18.20;99.90;;;;;;3579029;39;20798;-79
2021/06/24 00:41:17;;;;;;;7.15;4.55;;;18.00;99.90;;;;;;3573023;39;20236;-79
2021/06/24 00:43:45;;;;;;;7.50;4.70;;;18.10;99.90;;;;;;3578122;39;20215;-79
2021/06/24 00:46:12;;;;;;;7.03;4.35;;;18.20;99.90;;;;;;3571519;39;20241;-79
2021/06/24 00:48:40;;;;;;;8.55;5.00;;;18.10;99.90;;;;;;3578205;39;20260;-80
2021/06/24 00:51:07;;;;;;;12.77;5.53;;;18.10;99.90;;;;;;3573576;39;20244;-80
2021/06/24 00:53:34;;;;;;;8.75;5.82;;;18.00;99.90;;;;;;3581492;39;20298;-79
2021/06/24 00:56:04;;;;;;;10.07;5.22;;;18.20;99.90;;;;;;3616579;39;20235;-81
2021/06/24 00:58:35;;;;;;;8.00;4.85;;;18.20;99.90;;;;;;3573151;39;20240;-80
2021/06/24 01:01:04;;;;;;;8.05;5.60;;;18.20;99.90;;;;;;3572856;39;20751;-79
2021/06/24 01:03:31;;;;;;;12.05;5.20;;;18.10;99.90;;;;;;3572762;39;20233;-80
2021/06/24 01:05:58;;;;;;;11.57;5.70;;;18.00;99.90;;;;;;3571423;40;20252;-79
2021/06/24 01:08:29;;;;;;;6.95;5.18;;;18.00;99.90;;;;;;3571393;40;20298;-81
2021/06/24 01:11:00;;;;;;;7.75;5.05;;;18.00;99.90;;;;;;3562568;40;20240;-82
2021/06/24 01:13:29;;;;;;;10.85;5.03;;;18.10;99.90;;;;;;3562941;39;20224;-80
2021/06/24 01:15:56;;;;;;;8.00;5.10;;;17.90;99.90;;;;;;3571375;40;20251;-81
2021/06/24 01:18:25;;;;;;;12.00;6.22;;;17.90;99.90;;;;;;3562619;39;20272;-79
2021/06/24 01:20:53;;;;;;;10.73;6.65;;;18.20;99.90;;;;;;3562780;40;20255;-82
2021/06/24 01:23:22;;;;;;;7.60;5.60;;;18.20;99.90;;;;;;3562810;40;20266;-79
2021/06/24 01:25:51;;;;;;;13.02;6.05;;;18.10;99.90;;;;;;3572400;39;20255;-80
2021/06/24 01:28:19;;;;;;;9.75;6.70;;;18.00;99.90;;;;;;3581269;39;20244;-80
2021/06/24 01:30:46;;;;;;;7.80;5.82;;;17.90;99.90;;;;;;3581161;39;20724;-80
2021/06/24 01:33:14;;;;;;;8.25;6.32;;;17.70;99.90;;;;;;3581232;39;20285;-80
2021/06/24 01:35:41;;;;;;;13.00;7.90;;;17.70;99.90;;;;;;3610794;22;20251;-81
2021/06/24 01:38:11;;;;;;;7.72;6.45;;;17.70;99.90;;;;;;3571024;39;20237;-79
2021/06/24 01:40:49;;;;;;;7.10;6.10;;;17.80;99.90;;;;;;3570903;39;20233;-78
2021/06/24 01:43:17;;;;;;;9.10;6.50;;;17.80;99.90;;;;;;3571097;39;20254;-80
2021/06/24 01:45:46;;;;;;;12.45;6.13;;;17.80;99.90;;;;;;3570977;39;20257;-83
2021/06/24 01:48:13;;;;;;;9.25;6.18;;;17.80;99.90;;;;;;3570862;39;20290;-83
2021/06/24 01:50:41;;;;;;;9.57;5.90;;;17.80;99.90;;;;;;3570730;39;20256;-78
2021/06/24 01:53:09;;;;;;;7.28;5.35;;;17.60;99.90;;;;;;3570818;39;20228;-79
2021/06/24 01:55:39;;;;;;;15.05;6.40;;;17.50;99.90;;;;;;3570819;39;20247;-79
2021/06/24 01:58:13;;;;;;;10.80;6.30;;;17.60;99.90;;;;;;3570659;39;20251;-79
2021/06/24 02:01:01;;;;;;;13.23;6.63;;;17.80;99.90;;;;;;3571151;39;20696;-79
2021/06/24 02:03:35;;;;;;;14.70;6.72;;;17.90;99.90;;;;;;3570712;39;20743;-79
2021/06/24 02:06:03;;;;;;;11.07;5.78;;;17.80;99.90;;;;;;3570834;39;20224;-79
2021/06/24 02:08:35;;;;;;;11.55;6.65;;;17.80;99.90;;;;;;3570805;39;20297;-78
2021/06/24 02:11:10;;;;;;;12.25;7.53;;;17.70;99.90;;;;;;3570955;39;20239;-79
2021/06/24 02:13:42;;;;;;;8.10;6.68;;;17.60;99.90;;;;;;3570354;39;20248;-80
2021/06/24 02:16:11;;;;;;;9.43;6.50;;;17.30;99.90;;;;;;3570782;39;20233;-79
2021/06/24 02:18:55;;;;;;;7.07;6.35;;;17.30;99.90;;;;;;3570423;39;20848;-79
2021/06/24 02:21:42;;;;;;;8.73;5.78;;;17.30;99.90;;;;;;3570962;39;20279;-79
2021/06/24 02:24:11;;;;;;;9.82;6.03;;;17.20;99.90;;;;;;3570205;39;20240;-79
2021/06/24 02:26:53;;;;;;;10.55;6.43;;;17.10;99.90;;;;;;3570924;39;20272;-80
2021/06/24 02:29:26;;;;;;;12.20;6.32;;;17.40;99.90;;;;;;3570706;39;20279;-78
2021/06/24 02:31:55;;;;;;;15.80;7.07;;;17.10;99.90;;;;;;3570546;39;20240;-79
2021/06/24 02:34:42;;;;;;;10.00;5.80;;;17.10;99.90;;;;;;3570461;39;20228;-79
2021/06/24 02:37:16;;;;;;;11.07;6.30;;;17.10;99.90;;;;;;3570629;39;20239;-79
2021/06/24 02:40:09;;;;;;;9.18;5.93;;;17.00;99.90;;;;;;3571696;39;20233;-80
2021/06/24 02:42:37;;;;;;;8.18;5.97;;;17.00;99.90;;;;;;3570486;39;20832;-79
2021/06/24 02:45:07;;;;;;;14.57;6.28;;;16.70;99.90;;;;;;3570728;39;20252;-79
2021/06/24 02:47:36;;;;;;;9.05;5.20;;;16.60;99.90;;;;;;3570217;39;20244;-79
2021/06/24 02:50:04;;;;;;;8.73;5.72;;;16.50;99.90;;;;;;3570349;39;20243;-78
2021/06/24 02:52:31;;;;;;;6.55;5.53;;;16.50;99.90;;;;;;3561311;39;20237;-78
2021/06/24 02:54:59;;;;;;;9.02;6.45;;;16.40;99.90;;;;;;3570111;39;20244;-81
2021/06/24 02:57:36;;;;;;;10.73;5.85;;;16.40;99.90;;;;;;3569925;39;20242;-79
2021/06/24 03:00:22;;;;;;;6.32;5.68;;;16.50;99.90;;;;;;3570689;39;20757;-80
2021/06/24 03:03:10;;;;;;;7.75;5.57;;;16.40;99.90;;;;;;3570314;39;20795;-80
2021/06/24 03:05:55;;;;;;;8.10;6.05;;;16.60;99.90;;;;;;3570416;39;20816;-80
2021/06/24 03:08:23;;;;;;;9.57;6.25;;;16.60;99.90;;;;;;3570483;39;20316;-80
2021/06/24 03:10:57;;;;;;;10.23;5.55;;;16.60;99.90;;;;;;3570314;39;20256;-80
2021/06/24 03:13:25;;;;;;;10.68;6.43;;;16.70;99.90;;;;;;3570064;39;20251;-79
2021/06/24 03:15:52;;;;;;;8.63;6.18;;;16.60;99.90;;;;;;3570544;39;20312;-78
2021/06/24 03:18:22;;;;;;;7.72;5.82;;;16.50;99.90;;;;;;3570158;39;20217;-79
2021/06/24 03:20:49;;;;;;;12.35;7.05;;;16.60;99.90;;;;;;3570526;39;20294;-79
2021/06/24 03:23:16;;;;;;;7.78;6.60;;;16.80;99.90;;;;;;3570268;39;20243;-78
2021/06/24 03:25:45;;;;;;;10.75;7.68;;;17.10;99.90;;;;;;3570502;39;20245;-78
2021/06/24 03:28:13;;;;;;;12.70;7.70;;;17.30;99.90;;;;;;3570252;39;20811;-80
2021/06/24 03:30:53;;;;;;;8.27;6.93;;;17.30;99.90;;;;;;3570207;39;20248;-79
2021/06/24 03:33:22;;;;;;;8.70;6.95;;;17.30;99.90;;;;;;3570257;39;20672;-78
2021/06/24 03:35:50;;;;;;;11.30;7.82;;;17.10;99.90;;;;;;3570136;39;20256;-80
2021/06/24 03:38:19;;;;;;;8.90;6.63;;;17.20;99.90;;;;;;3562054;39;20244;-79
2021/06/24 03:40:47;;;;;;;9.65;7.03;;;17.20;99.90;;;;;;3570133;39;20645;-78
2021/06/24 03:43:14;;;;;;;8.57;7.60;;;17.00;99.90;;;;;;3570165;39;21378;-78
2021/06/24 03:45:41;;;;;;;7.97;6.78;;;17.10;99.90;;;;;;3570200;39;20252;-80
2021/06/24 03:48:09;;;;;;;9.05;7.50;;;17.40;99.90;;;;;;3570255;39;20232;-78
2021/06/24 03:50:38;;;;;;;8.63;6.65;;;17.40;99.90;;;;;;3570424;39;20236;-80
2021/06/24 03:53:06;;;;;;;10.55;7.47;;;17.30;99.90;;;;;;3570020;39;20240;-82
2021/06/24 03:55:37;;;;;;;13.40;8.05;;;17.30;99.90;;;;;;3570062;39;20244;-79
2021/06/24 03:58:17;;;;;;;8.38;7.53;;;17.40;99.90;;;;;;3569858;39;20814;-78
2021/06/24 04:00:47;;;;;;;13.23;7.45;;;17.40;99.90;;;;;;3570322;39;20233;-82
2021/06/24 04:03:16;;;;;;;8.48;6.68;;;17.30;99.90;;;;;;3570134;39;20240;-78
2021/06/24 04:06:05;;;;;;;11.75;6.70;;;17.10;99.90;;;;;;3570374;39;20229;-78
2021/06/24 04:08:33;;;;;;;10.73;7.07;;;16.70;99.90;;;;;;3569487;39;20237;-78
2021/06/24 04:11:00;;;;;;;13.40;8.05;;;16.70;99.90;;;;;;3570240;39;20233;-78
2021/06/24 04:13:28;;;;;;;9.32;7.10;;;17.10;99.90;;;;;;3580310;39;20259;-79
2021/06/24 04:15:58;;;;;;;9.82;7.47;;;17.30;99.90;;;;;;3575647;39;20232;-81
2021/06/24 04:18:26;;;;;;;9.50;8.57;;;17.50;99.90;;;;;;3570032;39;20265;-79
2021/06/24 04:20:54;;;;;;;9.90;8.00;;;17.60;99.90;;;;;;3569877;39;20240;-79
2021/06/24 04:23:23;;;;;;;9.35;6.63;;;17.50;99.90;;;;;;3569909;39;20252;-79
2021/06/24 04:25:55;;;;;;;8.30;7.28;;;17.40;99.90;;;;;;3569975;39;20281;-80
2021/06/24 04:28:23;;;;;;;9.20;7.65;;;17.30;99.90;;;;;;3575407;39;20256;-78
2021/06/24 04:31:00;;;;;;;10.15;6.53;;;17.40;99.90;;;;;;3580117;39;20235;-78
2021/06/24 04:33:29;;;;;;;8.40;6.70;;;17.50;99.90;;;;;;3579342;39;20251;-78
2021/06/24 04:36:19;;;;;;;12.35;8.70;;;17.30;99.90;;;;;;3579705;39;20261;-84
2021/06/24 04:38:52;;;;;;;9.20;8.35;;;17.60;99.90;;;;;;3577184;39;20297;-78
2021/06/24 04:41:19;;;;;;;14.80;9.35;;;17.80;99.90;;;;;;3585467;39;20237;-78
2021/06/24 04:44:00;;;;;;;14.13;9.13;;;17.70;99.90;;;;;;3595804;39;20738;-80
2021/06/24 04:46:31;;;;;;;10.27;6.63;;;17.50;99.90;;;;;;3580193;39;20262;-78
2021/06/24 04:48:58;;;;;;;9.63;7.55;;;17.40;99.90;;;;;;3579711;39;20232;-83
2021/06/24 04:51:48;;;;;;;11.20;8.27;;;17.10;99.90;;;;;;3580713;39;20256;-78
2021/06/24 04:54:31;;;;;;;9.88;7.95;;;17.40;99.90;;;;;;3579910;39;20272;-79
2021/06/24 04:56:58;;;;;;;14.15;9.48;;;17.60;99.90;;;;;;3574938;39;20732;-82
2021/06/24 04:59:58;;;;;;;15.70;8.27;;;17.60;99.90;;;;;;3543527;39;20229;-79
2021/06/24 05:02:43;;;;;;;14.65;8.40;;;17.30;99.90;;;;;;3560065;39;20230;-81
2021/06/24 05:05:31;;;;;;;13.07;9.45;;;17.40;99.90;;;;;;3567946;39;20249;-79
2021/06/24 05:08:00;;;;;;;11.63;8.20;;;17.50;99.90;;;;;;3560063;39;20294;-79
2021/06/24 05:10:28;;;;;;;11.52;8.98;;;17.60;99.90;;;;;;3567888;39;20299;-78
2021/06/24 05:12:55;;;;;;;11.18;9.85;;;17.70;99.90;;;;;;3559904;39;20233;-79
2021/06/24 05:15:30;;;;;;;10.93;8.95;;;17.70;99.90;;;;;;3559815;39;20248;-83
2021/06/24 05:17:57;;;;;;;15.23;12.32;;;17.50;99.90;;;;;;3559987;39;20763;-80
2021/06/24 05:20:25;;;;;;;11.80;9.52;;;17.50;99.90;;;;;;3560049;39;20266;-83
2021/06/24 05:22:54;;;;;;;13.95;8.20;;;17.60;99.90;;;;;;3561161;39;20253;-78
2021/06/24 05:25:22;;;;;;;14.82;9.27;;;17.70;99.90;;;;;;3569355;39;20255;-77
2021/06/24 05:27:50;;;;;;;9.85;8.23;;;17.80;99.90;;;;;;3561396;39;20727;-79
2021/06/24 05:30:18;;;;;;;10.07;8.35;;;17.70;99.90;;;;;;3569729;39;20696;-78
2021/06/24 05:32:45;;;;;;;13.18;8.40;;;17.70;99.90;;;;;;3563939;39;20236;-78
2021/06/24 05:35:13;;;;;;;16.45;8.80;;;17.60;99.90;;;;;;3580955;39;20232;-79
2021/06/24 05:37:40;;;;;;;15.57;9.18;;;17.70;99.90;;;;;;3581326;39;20244;-78
2021/06/24 05:40:08;;;;;;;8.70;7.68;;;17.70;99.90;;;;;;3580256;39;20300;-83
2021/06/24 05:42:35;;;;;;;9.43;8.63;;;17.80;99.90;;;;;;3579010;40;20296;-78
2021/06/24 05:45:05;;;;;;;11.23;8.27;;;17.90;99.90;;;;;;3578778;40;20264;-79
2021/06/24 05:47:33;;;;;;;14.02;7.22;;;18.10;99.90;;;;;;3578749;40;20293;-78
2021/06/24 05:50:03;;;;;;;12.60;7.10;;;18.10;99.90;;;;;;3578984;40;20236;-79
2021/06/24 05:52:36;;;;;;;9.07;7.95;;;18.00;99.90;;;;;;3577629;40;20235;-78
2021/06/24 05:55:04;;;;;;;10.80;7.40;;;18.20;99.90;;;;;;3578360;40;20313;-78
2021/06/24 05:57:31;;;;;;;10.85;8.20;;;18.20;99.90;;;;;;3578810;40;20228;-78
2021/06/24 05:59:58;;;;;;;13.52;8.70;;;18.50;99.90;;;;;;3578565;40;20280;-80
2021/06/24 06:02:28;;;;;;;13.10;9.38;;;18.40;99.90;;;;;;3578260;40;20666;-80
2021/06/24 06:04:55;;;;;;;10.18;8.98;;;18.50;99.90;;;;;;3579439;40;20333;-78
2021/06/24 06:07:22;;;;;;;11.40;9.18;;;18.50;99.90;;;;;;3578152;40;20229;-79
2021/06/24 06:09:49;;;;;;;9.48;8.52;;;18.40;99.90;;;;;;3577524;40;20250;-79
2021/06/24 06:12:16;;;;;;;12.05;9.57;;;18.30;99.90;;;;;;3578366;40;20239;-79
2021/06/24 06:14:43;;;;;;;9.30;8.30;;;18.30;99.90;;;;;;3578808;40;20313;-80
2021/06/24 06:17:11;;;;;;;8.77;7.70;;;18.30;99.90;;;;;;3578267;40;20220;-79
2021/06/24 06:19:39;;;;;;;11.38;8.68;;;18.10;99.90;;;;;;3571916;40;20236;-80
2021/06/24 06:22:06;;;;;;;13.50;9.05;;;18.40;99.90;;;;;;3568982;40;20244;-80
2021/06/24 06:24:33;;;;;;;10.52;9.43;;;18.20;99.90;;;;;;3560127;40;20244;-79
2021/06/24 06:27:00;;;;;;;9.73;8.73;;;18.30;99.90;;;;;;3568268;40;20232;-80
2021/06/24 06:29:27;;;;;;;9.55;8.65;;;18.30;99.90;;;;;;3567915;40;20236;-80
2021/06/24 06:31:54;;;;;;;11.98;8.48;;;18.10;99.90;;;;;;3568583;40;20636;-80
2021/06/24 06:34:21;;;;;;;10.02;7.75;;;18.00;99.90;;;;;;3567929;40;20251;-79
2021/06/24 06:36:50;;;;;;;9.60;8.70;;;18.20;99.90;;;;;;3568786;40;20289;-80
2021/06/24 06:39:17;;;;;;;10.18;8.75;;;18.40;99.90;;;;;;3568159;40;20249;-80
2021/06/24 06:41:44;;;;;;;11.40;10.30;;;17.90;99.90;;;;;;3568352;40;20513;-80
2021/06/24 06:44:11;;;;;;;14.65;9.65;;;18.00;99.90;;;;;;3568220;40;20676;-80
2021/06/24 06:46:38;;;;;;;9.23;8.43;;;18.30;99.90;;;;;;3568958;40;20301;-79
2021/06/24 06:49:05;;;;;;;11.27;8.48;;;18.10;99.90;;;;;;3567917;40;20236;-79
2021/06/24 06:51:32;;;;;;;14.00;10.60;;;18.00;99.90;;;;;;3567729;40;20277;-79
2021/06/24 06:54:00;;;;;;;10.95;8.77;;;18.10;99.90;;;;;;3568107;40;20244;-80
2021/06/24 06:56:28;;;;;;;13.73;9.30;;;17.70;99.90;;;;;;3567424;40;20774;-80
2021/06/24 06:58:57;;;;;;;10.93;9.80;;;17.60;99.90;;;;;;3568258;39;20225;-79
2021/06/24 07:01:25;;;;;;;9.57;8.57;;;17.90;99.90;;;;;;3570926;39;20247;-81
2021/06/24 07:03:52;;;;;;;15.40;10.75;;;17.90;99.90;;;;;;3574291;39;20244;-82
2021/06/24 07:06:38;;;;;;;11.20;9.73;;;18.20;99.90;;;;;;3571991;39;20265;-82
2021/06/24 07:09:06;;;;;;;10.98;9.60;;;18.40;99.90;;;;;;3569692;39;20631;-82
2021/06/24 07:11:33;;;;;;;13.23;10.27;;;18.40;99.90;;;;;;3564702;39;20223;-81
2021/06/24 07:14:01;;;;;;;13.02;10.35;;;18.10;99.90;;;;;;3579573;39;20619;-79
2021/06/24 07:16:28;;;;;;;14.15;11.07;;;18.30;99.90;;;;;;3573095;39;20688;-80
2021/06/24 07:18:55;;;;;;;13.57;10.13;;;18.30;99.90;;;;;;3568511;40;20252;-78
2021/06/24 07:21:22;;;;;;;12.15;10.65;;;18.20;99.90;;;;;;3574369;39;20293;-78
2021/06/24 07:23:49;;;;;;;18.08;11.52;;;18.30;99.90;;;;;;3569661;40;20248;-78
2021/06/24 07:26:17;;;;;;;16.35;11.48;;;18.40;99.90;;;;;;3568349;40;20242;-78
2021/06/24 07:28:44;;;;;;;13.52;11.40;;;18.30;99.90;;;;;;3577746;40;20255;-79
2021/06/24 07:31:11;;;;;;;15.20;11.43;;;18.20;99.90;;;;;;3577636;40;20243;-80
2021/06/24 07:33:38;;;;;;;12.07;10.30;;;18.30;99.90;;;;;;3577580;40;20269;-78
2021/06/24 07:36:06;;;;;;;12.10;10.13;;;18.10;99.90;;;;;;3571522;39;20236;-78
2021/06/24 07:38:33;;;;;;;10.88;9.82;;;18.10;99.90;;;;;;3580012;39;20297;-80
2021/06/24 07:41:11;;;;;;;11.10;9.95;;;18.00;99.90;;;;;;3573712;39;20232;-78
2021/06/24 07:43:40;;;;;;;12.65;9.82;;;18.30;99.90;;;;;;3569402;39;20287;-80
2021/06/24 07:46:08;;;;;;;12.18;9.73;;;18.40;99.90;;;;;;3569701;39;20248;-80
2021/06/24 07:48:35;;;;;;;11.02;9.35;;;18.70;99.90;;;;;;3569302;39;20243;-81
2021/06/24 07:51:02;;;;;;;10.05;7.68;;;18.70;99.90;;;;;;3569208;40;20228;-78
2021/06/24 07:53:29;;;;;;;10.85;9.43;;;18.80;99.90;;;;;;3575904;39;20259;-77
2021/06/24 07:55:56;;;;;;;17.13;10.48;;;18.90;99.90;;;;;;3571744;39;20289;-78
2021/06/24 07:58:23;;;;;;;10.70;8.68;;;19.00;99.90;;;;;;3569430;39;20293;-79
2021/06/24 08:00:52;;;;;;;9.15;8.18;;;18.80;99.90;;;;;;3568296;39;20652;-79
2021/06/24 08:03:19;;;;;;;9.10;8.20;;;19.00;99.90;;;;;;3569023;39;20289;-80
2021/06/24 08:05:46;;;;;;;9.80;8.65;;;18.90;99.90;;;;;;3567883;39;20236;-82
2021/06/24 08:08:13;;;;;;;10.05;8.38;;;19.00;99.90;;;;;;3568696;39;20579;-79
2021/06/24 08:10:40;;;;;;;13.05;9.13;;;18.90;99.90;;;;;;3569154;39;20232;-80
2021/06/24 08:13:07;;;;;;;11.63;9.63;;;19.00;99.90;;;;;;3569564;39;20270;-82
2021/06/24 08:15:34;;;;;;;11.68;9.10;;;19.00;99.90;;;;;;3569610;39;20301;-80
2021/06/24 08:18:03;;;;;;;15.15;8.90;;;19.00;99.90;;;;;;3569591;39;20247;-80
2021/06/24 08:20:30;;;;;;;11.38;7.30;;;19.20;99.90;;;;;;3569467;39;20240;-81
2021/06/24 08:22:59;;;;;;;10.52;8.25;;;19.10;99.90;;;;;;3568707;39;20231;-81
2021/06/24 08:25:27;;;;;;;13.02;8.00;;;19.10;99.90;;;;;;3569070;39;20628;-80
2021/06/24 08:27:54;;;;;;;11.32;8.68;;;19.40;99.90;;;;;;3568541;39;20228;-79
2021/06/24 08:30:22;;;;;;;12.23;9.70;;;19.40;99.90;;;;;;3568045;39;20289;-83
2021/06/24 08:32:49;;;;;;;11.20;8.70;;;19.60;99.90;;;;;;3569893;39;20337;-81
2021/06/24 08:35:18;;;;;;;11.35;7.50;;;19.60;99.90;;;;;;3569318;39;20302;-82
2021/06/24 08:37:47;;;;;;;9.40;8.23;;;19.60;99.90;;;;;;3569589;39;20301;-82
2021/06/24 08:40:15;;;;;;;9.75;8.10;;;19.50;99.90;;;;;;3569338;39;20228;-84
2021/06/24 08:42:44;;;;;;;7.45;6.80;;;19.80;99.90;;;;;;3569453;39;20243;-82
2021/06/24 08:45:12;;;;;;;16.52;8.23;;;19.70;99.90;;;;;;3591947;39;20237;-82
2021/06/24 08:47:44;;;;;;;8.82;7.35;;;19.80;99.90;;;;;;3569058;39;20274;-84
2021/06/24 08:50:12;;;;;;;10.48;7.80;;;19.80;99.90;;;;;;3569342;39;20235;-82
2021/06/24 08:52:49;;;;;;;9.38;7.25;;;19.90;99.90;;;;;;3568486;39;20252;-82
2021/06/24 08:55:18;;;;;;;9.57;7.20;;;20.10;99.90;;;;;;3609192;39;20229;-82
2021/06/24 08:57:46;;;;;;;8.77;7.70;;;20.10;99.90;;;;;;3622686;39;20291;-82
2021/06/24 09:00:16;;;;;;;9.45;6.57;;;20.50;99.90;;;;;;3622785;39;20682;-81
2021/06/24 09:02:46;;;;;;;7.25;6.13;;;20.50;99.90;;;;;;3578526;39;20277;-82
2021/06/24 09:05:52;;;;;;;7.45;5.93;;;20.50;99.90;;;;;;3570813;39;20293;-82
2021/06/24 09:08:35;;;;;;;8.15;6.57;;;20.60;99.90;;;;;;3570592;39;20209;-81
2021/06/24 09:11:16;;;;;;;10.50;6.88;;;20.70;99.90;;;;;;3571123;39;20244;-81
2021/06/24 09:13:44;;;;;;;9.70;6.93;;;20.80;99.90;;;;;;3578393;39;20225;-81
2021/06/24 09:16:23;;;;;;;8.77;6.13;;;20.80;99.90;;;;;;3611904;39;20232;-82
2021/06/24 09:19:43;;;;;;;11.25;7.90;;;20.60;99.90;;;;;;3585381;39;20239;-82
2021/06/24 09:22:15;;;;;;;10.50;7.68;;;20.70;99.90;;;;;;3622837;39;20220;-80
2021/06/24 09:24:46;;;;;;;6.15;5.55;;;20.80;99.90;;;;;;3622533;39;20248;-82
2021/06/24 09:27:29;;;;;;;7.38;5.57;;;20.70;99.90;;;;;;3594071;39;20232;-80
2021/06/24 09:30:08;;;;;;;10.65;5.93;;;20.60;99.90;;;;;;3590497;39;20213;-82
2021/06/24 09:32:37;;;;;;;9.38;6.38;;;21.00;99.90;;;;;;3579117;39;20247;-83
2021/06/24 09:35:06;;;;;;;9.18;5.78;;;21.10;99.90;;;;;;3580871;39;20269;-85
2021/06/24 09:38:00;;;;;;;6.00;5.40;;;21.20;99.90;;;;;;3566393;39;20215;-82
2021/06/24 09:40:41;;;;;;;10.15;4.70;;;21.30;99.90;;;;;;3576712;39;20251;-83
2021/06/24 09:43:14;;;;;;;7.47;5.25;;;21.00;99.90;;;;;;3577445;39;20246;-83
2021/06/24 09:45:59;;;;;;;7.78;5.25;;;21.00;99.90;;;;;;3569517;39;20225;-82
2021/06/24 09:48:33;;;;;;;8.55;5.47;;;21.00;99.90;;;;;;3572085;39;20244;-82
2021/06/24 09:51:06;;;;;;;7.07;5.47;;;21.30;99.90;;;;;;3573414;39;20305;-82
2021/06/24 09:53:34;;;;;;;6.25;4.53;;;21.50;99.90;;;;;;3593670;39;20270;-83
2021/06/24 09:56:21;;;;;;;5.88;5.28;;;21.40;99.90;;;;;;3576209;39;20216;-86
2021/06/24 09:58:48;;;;;;;13.25;5.90;;;21.70;99.90;;;;;;3570459;39;20238;-83
2021/06/24 10:01:30;;;;;;;6.00;5.20;;;21.80;99.90;;;;;;3579567;39;20746;-83
2021/06/24 10:03:59;;;;;;;6.82;6.05;;;21.90;99.90;;;;;;3571074;39;20236;-81
2021/06/24 10:06:27;;;;;;;8.07;4.78;;;22.10;99.90;;;;;;3570503;39;20264;-83
2021/06/24 10:08:55;;;;;;;10.27;4.78;;;21.90;99.90;;;;;;3575662;39;20225;-82
2021/06/24 10:11:25;;;;;;;7.22;4.97;;;22.00;99.90;;;;;;3584915;39;20220;-84
2021/06/24 10:13:52;;;;;;;9.02;5.32;;;22.20;99.90;;;;;;3603323;39;20713;-83
2021/06/24 10:16:20;;;;;;;8.45;5.40;;;22.50;99.90;;;;;;3577772;39;20240;-81
2021/06/24 10:18:49;;;;;;;8.23;5.55;;;22.60;99.90;;;;;;3568519;39;20287;-82
2021/06/24 10:21:18;;;;;;;6.13;4.88;;;22.60;99.90;;;;;;3578758;39;20651;-84
2021/06/24 10:23:52;;;;;;;4.85;4.40;;;22.40;99.90;;;;;;3580351;39;20213;-84
2021/06/24 10:26:21;;;;;;;6.75;4.90;;;22.40;99.90;;;;;;3604020;22;20259;-42
2021/06/24 10:28:49;;;;;;;8.85;5.22;;;22.70;99.90;;;;;;3565489;39;20337;-40
2021/06/24 10:31:36;;;;;;;4.38;3.95;;;22.80;99.90;;;;;;3596750;39;20253;-40
2021/06/24 10:34:04;;;;;;;6.93;4.25;;;22.70;99.90;;;;;;3561697;40;20259;-39
2021/06/24 10:36:32;;;;;;;7.53;4.13;;;23.00;99.90;;;;;;3556206;40;20655;-40
2021/06/24 10:39:00;;;;;;;7.38;4.85;;;23.20;99.90;;;;;;3558128;39;20322;-40
2021/06/24 10:41:27;;;;;;;6.43;5.05;;;23.30;99.90;;;;;;3572232;39;20302;-40
2021/06/24 10:43:55;;;;;;;6.43;4.38;;;23.00;99.90;;;;;;3558527;39;20646;-42
2021/06/24 10:46:24;;;;;;;5.60;4.28;;;23.10;99.90;;;;;;3557939;40;20252;-41
2021/06/24 10:48:55;;;;;;;4.85;4.20;;;23.20;99.90;;;;;;3557563;40;20244;-42
2021/06/24 10:51:33;;;;;;;7.28;4.85;;;23.00;99.90;;;;;;3557843;40;20244;-40
2021/06/24 10:54:00;;;;;;;6.57;4.05;;;23.10;99.90;;;;;;3557740;40;20240;-40
2021/06/24 10:56:47;;;;;;;4.30;3.97;;;23.20;99.90;;;;;;3555822;39;20302;-39
2021/06/24 10:59:33;;;;;;;7.82;5.75;;;23.20;99.90;;;;;;3555308;40;20244;-42
2021/06/24 11:02:11;;;;;;;8.15;5.43;;;23.30;99.90;;;;;;3557577;39;20246;-40
2021/06/24 11:04:41;;;;;;;5.47;4.28;;;22.80;99.90;;;;;;3558878;40;20255;-41
2021/06/24 11:07:36;;;;;;;5.80;5.13;;;22.70;99.90;;;;;;3560040;39;20276;-40
2021/06/24 11:10:21;;;;;;;9.32;4.38;;;22.90;99.90;;;;;;3549456;39;20252;-40
2021/06/24 11:12:59;;;;;;;10.10;5.18;;;22.80;99.90;;;;;;3555617;40;20268;-40
2021/06/24 11:15:51;;;;;;;4.95;4.55;;;23.00;99.90;;;;;;3557177;40;20615;-41
2021/06/24 11:18:53;;;;;;;7.10;5.53;;;23.20;99.90;;;;;;3558853;40;20252;-40
2021/06/24 11:21:50;;;;;;;6.68;5.93;;;23.30;99.90;;;;;;3556509;39;20275;-39
2021/06/24 11:24:23;;;;;;;9.40;5.20;;;22.60;99.90;;;;;;3557679;40;20248;-40
2021/06/24 11:26:51;;;;;;;6.20;5.15;;;22.70;99.90;;;;;;3555154;40;20257;-40
2021/06/24 11:29:29;;;;;;;10.82;5.70;;;22.90;99.90;;;;;;3558649;40;20510;-40
2021/06/24 11:32:04;;;;;;;5.72;5.13;;;23.20;99.90;;;;;;3551598;40;20254;-39
2021/06/24 11:34:37;;;;;;;6.68;5.00;;;23.60;99.90;;;;;;3555112;40;20248;-39
2021/06/24 11:37:07;;;;;;;8.90;6.85;;;23.50;99.90;;;;;;3557246;40;20248;-40
2021/06/24 11:39:36;;;;;;;8.63;5.43;;;23.60;99.90;;;;;;3556291;40;20248;-40
2021/06/24 11:42:06;;;;;;;6.90;6.00;;;22.70;99.90;;;;;;3555668;40;20478;-40
2021/06/24 11:44:35;;;;;;;7.57;6.88;;;22.90;99.90;;;;;;3556182;40;20244;-39
2021/06/24 11:47:07;;;;;;;10.55;7.25;;;23.20;99.90;;;;;;3569233;39;20248;-41
2021/06/24 12:01:52;;;;;;;9.85;6.07;;;23.70;99.90;;;;;;3556579;40;20233;-40
2021/06/24 12:04:25;;;;;;;6.43;4.35;;;23.50;99.90;;;;;;3557485;40;20244;-40
2021/06/24 12:06:54;;;;;;;5.68;5.13;;;23.60;99.90;;;;;;3555933;40;20628;-40
2021/06/24 12:09:23;;;;;;;5.70;5.20;;;23.40;99.90;;;;;;3556504;40;20305;-40
2021/06/24 12:11:54;;;;;;;4.65;4.25;;;23.60;99.90;;;;;;3556825;40;20257;-40
2021/06/24 12:14:26;;;;;;;6.25;5.60;;;23.70;99.90;;;;;;3556812;40;20241;-40
2021/06/24 12:17:15;;;;;;;6.18;4.93;;;23.70;99.90;;;;;;3556880;40;20296;-39
2021/06/24 12:19:56;;;;;;;5.07;4.60;;;23.20;99.90;;;;;;3556532;40;20252;-39
2021/06/24 12:22:26;;;;;;;6.18;4.45;;;22.60;99.90;;;;;;3558575;40;20244;-41
2021/06/24 12:24:54;;;;;;;6.90;5.25;;;22.80;99.90;;;;;;3557267;40;20276;-41
2021/06/24 12:27:27;;;;;;;6.10;4.88;;;23.10;99.90;;;;;;3555353;40;20612;-41
2021/06/24 12:29:56;;;;;;;3.97;3.67;;;23.20;99.90;;;;;;3556245;40;20600;-39
2021/06/24 12:32:24;;;;;;;8.30;4.43;;;23.00;99.90;;;;;;3578443;39;20252;-43
2021/06/24 12:34:56;;;;;;;10.07;4.80;;;22.90;99.90;;;;;;3588626;39;20583;-41
2021/06/24 12:37:31;;;;;;;5.53;4.72;;;23.00;99.90;;;;;;3548772;40;20253;-42
2021/06/24 12:39:59;;;;;;;5.05;4.55;;;23.00;99.90;;;;;;3552784;40;20603;-40
2021/06/24 12:42:26;;;;;;;8.02;5.25;;;22.90;99.90;;;;;;3557866;40;20297;-40
2021/06/24 12:44:54;;;;;;;6.53;4.85;;;22.50;99.90;;;;;;3557544;40;20252;-40
2021/06/24 12:47:37;;;;;;;4.05;3.65;;;22.60;99.90;;;;;;3557494;40;20254;-40
2021/06/24 12:50:15;;;;;;;10.88;4.85;;;22.60;99.90;;;;;;3555918;39;20647;-39
2021/06/24 12:52:51;;;;;;;4.55;3.88;;;23.00;99.90;;;;;;3556890;40;20521;-40
2021/06/24 12:55:41;;;;;;;8.13;5.97;;;23.20;99.90;;;;;;3556618;40;20307;-41
2021/06/24 12:58:11;;;;;;;8.68;5.75;;;23.40;99.90;;;;;;3556567;40;20249;-40
2021/06/24 13:00:40;;;;;;;4.78;4.38;;;23.50;99.90;;;;;;3556821;40;20244;-39
2021/06/24 13:03:07;;;;;;;6.60;5.03;;;23.40;99.90;;;;;;3556930;40;20247;-39
2021/06/24 13:05:36;;;;;;;11.30;5.63;;;23.30;99.90;;;;;;3556725;40;20280;-40
2021/06/24 13:08:07;;;;;;;6.93;4.85;;;22.80;99.90;;;;;;3557424;40;20251;-39
2021/06/24 13:10:45;;;;;;;4.32;3.97;;;22.50;99.90;;;;;;3558836;39;20249;-40
2021/06/24 13:13:28;;;;;;;6.72;4.93;;;22.40;99.90;;;;;;3559511;39;20268;-39
2021/06/24 13:15:55;;;;;;;9.10;4.88;;;22.50;99.90;;;;;;3562726;40;20252;-38
2021/06/24 13:18:22;;;;;;;6.10;4.95;;;22.10;99.90;;;;;;3561082;40;20252;-41